createdAt,value
2018-08-25T00:02:13.140Z,100766.14
2018-08-25T00:04:41.455Z,100770.13
2018-08-25T00:07:09.766Z,100768.16
2018-08-25T00:09:38.660Z,100768.13
2018-08-25T00:12:06.394Z,100772.30
2018-08-25T00:14:34.729Z,100773.33
2018-08-25T00:17:03.621Z,100762.15
2018-08-25T00:19:31.359Z,100763.02
2018-08-25T00:22:00.246Z,100762.64
2018-08-25T00:24:28.557Z,100764.16
2018-08-25T00:26:56.295Z,100764.96
2018-08-25T00:29:24.606Z,100761.79
2018-08-25T00:31:53.492Z,100759.48
2018-08-25T00:34:21.853Z,100758.70
2018-08-25T00:36:49.590Z,100761.28
2018-08-25T00:39:17.922Z,100764.23
2018-08-25T00:41:46.237Z,100772.33
2018-08-25T00:44:15.130Z,100778.74
2018-08-25T00:46:43.443Z,100783.48
2018-08-25T00:49:11.761Z,100784.33
2018-08-25T00:51:40.081Z,100773.66
2018-08-25T00:54:08.394Z,100779.78
2018-08-25T00:56:36.138Z,100782.47
2018-08-25T00:59:05.033Z,100771.86
2018-08-25T01:01:32.772Z,100778.58
2018-08-25T01:04:01.669Z,100779.92
2018-08-25T01:06:29.981Z,100777.23
2018-08-25T01:08:57.725Z,100774.89
2018-08-25T01:11:26.623Z,100775.20
2018-08-25T01:13:54.369Z,100769.41
2018-08-25T01:16:22.687Z,100769.91
2018-08-25T01:18:51.006Z,100770.67
2018-08-25T01:21:19.318Z,100768.83
2018-08-25T01:23:47.637Z,100770.51
2018-08-25T01:26:15.972Z,100778.95
2018-08-25T01:28:44.282Z,100789.46
2018-08-25T01:31:13.173Z,100800.05
2018-08-25T01:33:40.916Z,100805.03
2018-08-25T01:36:09.264Z,100801.99
2018-08-25T01:38:38.153Z,100790.35
2018-08-25T01:41:05.881Z,100784.16
2018-08-25T01:43:34.785Z,100779.82
2018-08-25T01:46:03.095Z,100787.93
2018-08-25T01:48:30.833Z,100788.66
2018-08-25T01:50:59.141Z,100784.11
2018-08-25T01:53:27.470Z,100788.05
2018-08-25T01:55:56.112Z,100785.22
2018-08-25T01:58:24.435Z,100777.66
2018-08-25T02:00:53.072Z,100776.86
2018-08-25T02:03:21.969Z,100782.32
2018-08-25T02:05:49.705Z,100783.06
2018-08-25T02:08:18.607Z,100787.33
2018-08-25T02:10:47.147Z,100786.87
2018-08-25T02:13:15.229Z,100774.55
2018-08-25T02:15:43.841Z,100775.75
2018-08-25T02:18:12.165Z,100776.96
2018-08-25T02:20:40.477Z,100780.41
2018-08-25T02:23:08.797Z,100778.48
2018-08-25T02:25:37.157Z,100782.59
2018-08-25T02:28:05.525Z,100787.26
2018-08-25T02:30:33.224Z,100792.82
2018-08-25T02:33:02.132Z,100792.47
2018-08-25T02:35:30.464Z,100788.78
2018-08-25T02:37:58.209Z,100791.88
2018-08-25T02:40:27.123Z,100790.69
2018-08-25T02:42:55.726Z,100779.30
2018-08-25T02:45:24.042Z,100771.79
2018-08-25T02:47:51.778Z,100777.86
2018-08-25T02:50:20.685Z,100776.47
2018-08-25T02:52:49.008Z,100777.23
2018-08-25T02:55:16.745Z,100780.01
2018-08-25T02:57:45.061Z,100779.37
2018-08-25T03:00:13.391Z,100779.53
2018-08-25T03:02:42.290Z,100781.42
2018-08-25T03:05:10.029Z,100775.42
2018-08-25T03:07:38.922Z,100776.13
2018-08-25T03:10:07.233Z,100774.74
2018-08-25T03:12:35.560Z,100769.95
2018-08-25T03:15:03.654Z,100767.34
2018-08-25T03:17:31.606Z,100768.67
2018-08-25T03:20:00.497Z,100774.62
2018-08-25T03:22:28.271Z,100776.02
2018-08-25T03:24:56.576Z,100777.69
2018-08-25T03:27:24.853Z,100778.58
2018-08-25T03:29:53.177Z,100772.34
2018-08-25T03:32:21.501Z,100775.94
2018-08-25T03:34:49.830Z,100787.52
2018-08-25T03:37:18.274Z,100788.81
2018-08-25T03:39:46.478Z,100792.39
2018-08-25T03:42:14.794Z,100791.20
2018-08-25T03:44:43.114Z,100789.72
2018-08-25T03:47:11.440Z,100787.20
2018-08-25T03:49:39.753Z,100785.77
2018-08-25T03:52:08.646Z,100797.81
2018-08-25T03:54:36.385Z,100806.59
2018-08-25T03:57:05.272Z,100807.20
2018-08-25T03:59:33.586Z,100808.48
2018-08-25T04:02:01.677Z,100811.65
2018-08-25T04:04:30.213Z,100814.58
2018-08-25T04:06:57.952Z,100808.77
2018-08-25T04:09:26.849Z,100811.25
2018-08-25T04:11:54.583Z,100813.25
2018-08-25T04:14:22.897Z,100811.41
2018-08-25T04:16:51.795Z,100807.48
2018-08-25T04:19:19.536Z,100806.66
2018-08-25T04:21:48.432Z,100809.55
2018-08-25T04:24:16.748Z,100808.23
2018-08-25T04:26:45.057Z,100807.94
2018-08-25T04:29:13.385Z,100811.43
2018-08-25T04:31:41.110Z,100817.10
2018-08-25T04:34:09.429Z,100822.34
2018-08-25T04:36:37.746Z,100815.75
2018-08-25T04:39:06.073Z,100814.93
2018-08-25T04:41:35.794Z,100818.47
2018-08-25T04:44:03.531Z,100816.80
2018-08-25T04:46:31.850Z,100817.98
2018-08-25T04:49:00.733Z,100819.49
2018-08-25T04:51:29.062Z,100818.89
2018-08-25T04:53:56.797Z,100821.13
2018-08-25T04:56:25.699Z,100813.48
2018-08-25T04:58:53.430Z,100811.42
2018-08-25T05:01:21.821Z,100811.62
2018-08-25T05:03:50.643Z,100807.72
2018-08-25T05:06:18.384Z,100810.71
2018-08-25T05:08:47.261Z,100812.58
2018-08-25T05:11:15.006Z,100821.10
2018-08-25T05:13:43.322Z,100814.38
2018-08-25T05:16:11.634Z,100815.14
2018-08-25T05:18:39.954Z,100820.01
2018-08-25T05:21:08.577Z,100810.69
2018-08-25T05:23:36.601Z,100816.02
2018-08-25T05:26:04.913Z,100820.13
2018-08-25T05:28:33.229Z,100819.98
2018-08-25T05:31:01.547Z,100814.51
2018-08-25T05:33:30.445Z,100816.49
2018-08-25T05:35:58.766Z,100819.28
2018-08-25T05:38:26.495Z,100820.12
2018-08-25T05:40:55.402Z,100821.31
2018-08-25T05:43:23.170Z,100820.22
2018-08-25T05:45:52.063Z,100828.41
2018-08-25T05:48:20.380Z,100826.70
2018-08-25T05:50:48.707Z,100823.97
2018-08-25T05:53:16.437Z,100824.36
2018-08-25T05:55:45.336Z,100826.59
2018-08-25T05:58:13.067Z,100825.44
2018-08-25T06:00:41.420Z,100824.64
2018-08-25T06:03:09.737Z,100821.84
2018-08-25T06:05:38.045Z,100819.44
2018-08-25T06:08:06.366Z,100810.67
2018-08-25T06:10:34.674Z,100814.10
2018-08-25T06:13:02.981Z,100806.35
2018-08-25T06:15:31.295Z,100799.91
2018-08-25T06:17:59.606Z,100785.20
2018-08-25T06:20:28.502Z,100796.81
2018-08-25T06:22:56.809Z,100794.42
2018-08-25T06:25:25.125Z,100795.80
2018-08-25T06:27:52.863Z,100802.28
2018-08-25T06:30:21.629Z,100796.52
2018-08-25T06:32:50.066Z,100796.97
2018-08-25T06:35:17.810Z,100797.33
2018-08-25T06:37:46.508Z,100806.73
2018-08-25T06:40:15.017Z,100811.19
2018-08-25T06:42:42.755Z,100818.59
2018-08-25T06:45:11.666Z,100816.52
2018-08-25T06:47:39.404Z,100808.80
2018-08-25T06:50:08.565Z,100819.25
2018-08-25T06:52:36.308Z,100826.64
2018-08-25T06:55:05.200Z,100834.78
2018-08-25T06:57:32.938Z,100842.47
2018-08-25T07:00:01.827Z,100837.74
2018-08-25T07:02:30.132Z,100837.76
2018-08-25T07:04:57.866Z,100839.49
2018-08-25T07:07:26.762Z,100844.22
2018-08-25T07:09:54.497Z,100844.70
2018-08-25T07:12:23.388Z,100837.75
2018-08-25T07:14:51.135Z,100834.12
2018-08-25T07:17:19.460Z,100832.88
2018-08-25T07:19:47.788Z,100822.79
2018-08-25T07:22:16.690Z,100825.72
2018-08-25T07:24:44.422Z,100831.33
2018-08-25T07:27:12.761Z,100829.29
2018-08-25T07:29:41.632Z,100826.39
2018-08-25T07:32:10.021Z,100825.50
2018-08-25T07:34:38.280Z,100825.59
2018-08-25T07:37:06.025Z,100830.20
2018-08-25T07:39:34.969Z,100832.66
2018-08-25T07:42:02.730Z,100841.57
2018-08-25T07:44:31.053Z,100843.07
2018-08-25T07:46:59.996Z,100839.03
2018-08-25T07:49:28.407Z,100843.28
2018-08-25T07:51:56.724Z,100848.33
2018-08-25T07:54:24.469Z,100846.34
2018-08-25T07:56:52.787Z,100849.08
2018-08-25T07:59:21.757Z,100850.23
2018-08-25T08:01:49.991Z,100844.27
2018-08-25T08:04:18.310Z,100842.02
2018-08-25T08:06:46.637Z,100847.27
2018-08-25T08:09:15.301Z,100840.72
2018-08-25T08:11:43.474Z,100843.00
2018-08-25T08:14:11.743Z,100846.10
2018-08-25T08:16:39.481Z,100845.48
2018-08-25T08:19:08.857Z,100858.59
2018-08-25T08:21:36.601Z,100859.97
2018-08-25T08:24:05.496Z,100856.55
2018-08-25T08:26:33.236Z,100860.92
2018-08-25T08:29:02.148Z,100857.30
2018-08-25T08:31:30.470Z,100856.72
2018-08-25T08:33:59.120Z,100850.68
2018-08-25T08:36:27.446Z,100859.94
2018-08-25T08:38:55.764Z,100860.80
2018-08-25T08:41:23.512Z,100859.06
2018-08-25T08:43:52.405Z,100854.16
2018-08-25T08:46:20.129Z,100855.61
2018-08-25T08:48:48.534Z,100852.80
2018-08-25T08:51:16.949Z,100854.01
2018-08-25T08:53:45.175Z,100854.55
2018-08-25T08:56:13.527Z,100853.13
2018-08-25T08:58:42.396Z,100861.33
2018-08-25T09:01:10.716Z,100855.21
2018-08-25T09:03:38.456Z,100863.48
2018-08-25T09:06:06.791Z,100864.27
2018-08-25T09:08:35.700Z,100867.75
2018-08-25T09:11:04.020Z,100869.70
2018-08-25T09:13:32.336Z,100867.52
2018-08-25T09:16:00.651Z,100862.70
2018-08-25T09:18:28.962Z,100859.53
2018-08-25T09:20:57.280Z,100875.86
2018-08-25T09:23:25.755Z,100879.10
2018-08-25T09:25:54.683Z,100875.96
2018-08-25T09:28:23.167Z,100870.27
2018-08-25T09:30:51.505Z,100873.55
2018-08-25T09:33:20.077Z,100874.63
2018-08-25T09:35:48.496Z,100878.87
2018-08-25T09:38:16.984Z,100879.66
2018-08-25T09:40:45.356Z,100882.36
2018-08-25T09:43:13.757Z,100872.68
2018-08-25T09:45:42.357Z,100871.70
2018-08-25T09:48:10.714Z,100873.31
2018-08-25T09:50:39.065Z,100874.69
2018-08-25T09:53:07.387Z,100868.27
2018-08-25T09:55:35.842Z,100872.56
2018-08-25T09:58:04.343Z,100874.35
2018-08-25T10:00:32.198Z,100868.20
2018-08-25T10:03:01.470Z,100875.02
2018-08-25T10:05:29.173Z,100879.44
2018-08-25T10:07:58.326Z,100876.42
2018-08-25T10:10:26.686Z,100872.66
2018-08-25T10:12:54.962Z,100879.51
2018-08-25T10:15:23.308Z,100872.44
2018-08-25T10:17:51.625Z,100871.94
2018-08-25T10:20:19.414Z,100864.36
2018-08-25T10:22:47.790Z,100863.06
2018-08-25T10:25:16.815Z,100855.75
2018-08-25T10:27:45.146Z,100855.48
2018-08-25T10:30:13.550Z,100857.98
2018-08-25T10:32:41.862Z,100858.06
2018-08-25T10:35:10.183Z,100861.39
2018-08-25T10:37:37.952Z,100866.39
2018-08-25T10:40:06.878Z,100872.75
2018-08-25T10:42:35.193Z,100869.30
2018-08-25T10:45:02.936Z,100868.16
2018-08-25T10:47:31.263Z,100864.59
2018-08-25T10:50:00.206Z,100863.41
2018-08-25T10:52:27.981Z,100859.30
2018-08-25T10:54:56.880Z,100862.73
2018-08-25T10:57:25.196Z,100857.71
2018-08-25T10:59:53.525Z,100863.25
2018-08-25T11:02:21.859Z,100867.03
2018-08-25T11:04:50.488Z,100863.52
2018-08-25T11:07:19.047Z,100864.16
2018-08-25T11:09:47.155Z,100864.28
2018-08-25T11:12:14.898Z,100860.84
2018-08-25T11:14:43.801Z,100868.33
2018-08-25T11:17:11.558Z,100867.34
2018-08-25T11:19:40.459Z,100863.81
2018-08-25T11:22:08.253Z,100859.55
2018-08-25T11:24:37.177Z,100854.13
2018-08-25T11:27:04.919Z,100848.36
2018-08-25T11:29:33.818Z,100847.65
2018-08-25T11:32:02.157Z,100838.71
2018-08-25T11:34:30.468Z,100850.48
2018-08-25T11:36:58.242Z,100855.64
2018-08-25T11:39:27.139Z,100855.55
2018-08-25T11:41:54.884Z,100843.69
2018-08-25T11:44:23.240Z,100850.52
2018-08-25T11:46:52.213Z,100849.08
2018-08-25T11:49:19.950Z,100845.53
2018-08-25T11:51:49.179Z,100853.89
2018-08-25T11:54:16.989Z,100854.41
2018-08-25T11:56:45.937Z,100847.55
2018-08-25T11:59:14.257Z,100845.10
2018-08-25T12:01:42.579Z,100851.80
2018-08-25T12:04:10.995Z,100838.30
2018-08-25T12:06:39.314Z,100834.58
2018-08-25T12:09:07.688Z,100829.77
2018-08-25T12:11:36.022Z,100832.52
2018-08-25T12:14:03.774Z,100828.02
2018-08-25T12:16:32.105Z,100826.43
2018-08-25T12:19:00.981Z,100826.19
2018-08-25T12:21:29.302Z,100828.12
2018-08-25T12:23:57.636Z,100826.00
2018-08-25T12:26:25.940Z,100828.98
2018-08-25T12:28:54.250Z,100827.13
2018-08-25T12:31:21.990Z,100825.03
2018-08-25T12:33:50.305Z,100832.39
2018-08-25T12:36:19.212Z,100825.41
2018-08-25T12:38:47.528Z,100823.83
2018-08-25T12:41:15.365Z,100816.52
2018-08-25T12:43:45.227Z,100814.34
2018-08-25T12:46:13.595Z,100817.72
2018-08-25T12:48:41.338Z,100814.20
2018-08-25T12:51:09.710Z,100809.64
2018-08-25T12:53:38.661Z,100804.67
2018-08-25T12:56:06.511Z,100801.90
2018-08-25T12:58:35.685Z,100802.11
2018-08-25T13:01:03.510Z,100803.81
2018-08-25T13:03:32.444Z,100808.80
2018-08-25T13:06:02.090Z,100810.30
2018-08-25T13:08:28.490Z,100805.56
2018-08-25T13:10:57.425Z,100802.13
2018-08-25T13:13:26.061Z,100804.55
2018-08-25T13:15:54.557Z,100811.19
2018-08-25T13:18:23.183Z,100809.07
2018-08-25T13:20:51.416Z,100803.27
2018-08-25T13:23:19.830Z,100808.98
2018-08-25T13:25:48.333Z,100804.88
2018-08-25T13:28:16.547Z,100805.09
2018-08-25T13:30:45.003Z,100806.28
2018-08-25T13:33:12.863Z,100803.52
2018-08-25T13:35:41.772Z,100809.53
2018-08-25T13:38:10.313Z,100804.48
2018-08-25T13:40:38.747Z,100807.14
2018-08-25T13:43:07.497Z,100804.73
2018-08-25T13:45:35.857Z,100803.97
2018-08-25T13:48:04.227Z,100803.78
2018-08-25T13:50:32.580Z,100797.56
2018-08-25T13:53:00.942Z,100792.52
2018-08-25T13:55:29.592Z,100790.05
2018-08-25T13:57:57.856Z,100787.78
2018-08-25T14:00:26.243Z,100792.03
2018-08-25T14:02:54.222Z,100788.59
2018-08-25T14:05:22.332Z,100791.46
2018-08-25T14:07:51.451Z,100793.41
2018-08-25T14:10:19.790Z,100794.21
2018-08-25T14:12:48.244Z,100789.28
2018-08-25T14:15:16.722Z,100795.28
2018-08-25T14:17:45.060Z,100793.48
2018-08-25T14:20:12.886Z,100798.19
2018-08-25T14:22:42.435Z,100793.80
2018-08-25T14:25:10.803Z,100788.81
2018-08-25T14:27:39.137Z,100785.74
2018-08-25T14:30:07.523Z,100786.17
2018-08-25T14:32:35.856Z,100781.86
2018-08-25T14:35:04.163Z,100783.02
2018-08-25T14:37:32.721Z,100781.56
2018-08-25T14:40:01.265Z,100777.34
2018-08-25T14:42:29.482Z,100772.06
2018-08-25T14:44:57.615Z,100774.67
2018-08-25T14:47:26.206Z,100773.53
2018-08-25T14:49:54.532Z,100777.14
2018-08-25T14:52:22.848Z,100769.71
2018-08-25T14:54:50.626Z,100765.25
2018-08-25T14:57:19.524Z,100759.53
2018-08-25T14:59:47.907Z,100755.31
2018-08-25T15:02:16.232Z,100757.95
2018-08-25T15:04:44.578Z,100761.66
2018-08-25T15:07:12.996Z,100764.31
2018-08-25T15:09:41.374Z,100769.73
2018-08-25T15:12:09.709Z,100771.20
2018-08-25T15:14:38.037Z,100767.61
2018-08-25T15:17:06.446Z,100766.05
2018-08-25T15:19:34.785Z,100763.05
2018-08-25T15:22:03.287Z,100772.87
2018-08-25T15:24:31.620Z,100774.21
2018-08-25T15:26:59.375Z,100775.83
2018-08-25T15:29:29.104Z,100774.35
2018-08-25T15:31:56.073Z,100773.45
2018-08-25T15:34:25.130Z,100766.41
2018-08-25T15:36:53.560Z,100758.81
2018-08-25T15:39:21.905Z,100764.30
2018-08-25T15:41:50.495Z,100756.27
2018-08-25T15:44:18.859Z,100755.79
2018-08-25T15:46:47.353Z,100752.01
2018-08-25T15:49:17.049Z,100755.39
2018-08-25T15:51:44.965Z,100759.93
2018-08-25T15:54:12.632Z,100758.02
2018-08-25T15:56:41.557Z,100755.09
2018-08-25T15:59:09.942Z,100754.16
2018-08-25T16:01:38.349Z,100747.77
2018-08-25T16:04:06.875Z,100745.48
2018-08-25T16:06:35.197Z,100739.91
2018-08-25T16:09:02.926Z,100737.84
2018-08-25T16:11:31.276Z,100736.40
2018-08-25T16:13:59.574Z,100741.14
2018-08-25T16:16:28.480Z,100743.94
2018-08-25T16:18:56.231Z,100741.80
2018-08-25T16:21:25.140Z,100739.22
2018-08-25T16:23:53.538Z,100738.23
2018-08-25T16:26:21.854Z,100744.19
2018-08-25T16:28:50.201Z,100743.20
2018-08-25T16:31:18.019Z,100744.09
2018-08-25T16:33:46.838Z,100741.21
2018-08-25T16:36:15.820Z,100739.52
2018-08-25T16:38:44.154Z,100737.90
2018-08-25T16:41:12.574Z,100735.23
2018-08-25T16:43:40.903Z,100738.18
2018-08-25T16:46:09.260Z,100731.11
2018-08-25T16:48:37.584Z,100732.43
2018-08-25T16:51:05.916Z,100728.23
2018-08-25T16:53:34.419Z,100727.50
2018-08-25T16:56:02.893Z,100722.78
2018-08-25T16:58:31.175Z,100724.75
2018-08-25T17:00:58.923Z,100727.55
2018-08-25T17:03:27.838Z,100729.57
2018-08-25T17:05:56.206Z,100732.78
2018-08-25T17:08:24.699Z,100733.30
2018-08-25T17:10:53.039Z,100727.50
2018-08-25T17:13:21.391Z,100731.69
2018-08-25T17:15:49.175Z,100729.89
2018-08-25T17:18:18.133Z,100727.16
2018-08-25T17:20:46.467Z,100727.61
2018-08-25T17:23:14.831Z,100723.98
2018-08-25T17:25:43.130Z,100720.17
2018-08-25T17:28:11.449Z,100716.76
2018-08-25T17:30:39.782Z,100708.97
2018-08-25T17:33:08.471Z,100710.34
2018-08-25T17:35:36.744Z,100708.41
2018-08-25T17:38:05.512Z,100716.65
2018-08-25T17:40:33.250Z,100717.30
2018-08-25T17:43:02.137Z,100722.80
2018-08-25T17:45:30.466Z,100727.50
2018-08-25T17:47:58.783Z,100728.67
2018-08-25T17:50:27.127Z,100730.82
2018-08-25T17:52:55.827Z,100730.95
2018-08-25T17:55:24.453Z,100737.56
2018-08-25T17:57:52.797Z,100734.77
2018-08-25T18:00:20.519Z,100737.18
2018-08-25T18:02:48.837Z,100741.91
2018-08-25T18:05:17.787Z,100750.16
2018-08-25T18:07:46.113Z,100748.00
2018-08-25T18:10:13.855Z,100748.55
2018-08-25T18:12:43.061Z,100749.69
2018-08-25T18:15:10.821Z,100748.42
2018-08-25T18:17:40.139Z,100744.27
2018-08-25T18:20:08.950Z,100741.67
2018-08-25T18:22:36.691Z,100739.70
2018-08-25T18:25:05.006Z,100742.25
2018-08-25T18:27:33.367Z,100740.06
2018-08-25T18:30:02.249Z,100742.92
2018-08-25T18:32:30.569Z,100742.63
2018-08-25T18:34:58.894Z,100740.33
2018-08-25T18:37:27.243Z,100741.45
2018-08-25T18:39:55.604Z,100742.41
2018-08-25T18:42:23.397Z,100747.62
2018-08-25T18:44:52.248Z,100744.12
2018-08-25T18:47:20.557Z,100745.91
2018-08-25T18:49:48.881Z,100742.43
2018-08-25T18:52:17.201Z,100744.95
2018-08-25T18:54:45.602Z,100740.04
2018-08-25T18:57:13.967Z,100738.16
2018-08-25T18:59:43.165Z,100738.01
2018-08-25T19:02:11.650Z,100738.70
2018-08-25T19:04:39.256Z,100737.78
2018-08-25T19:07:08.493Z,100739.77
2018-08-25T19:09:37.057Z,100738.09
2018-08-25T19:12:05.612Z,100743.77
2018-08-25T19:14:34.007Z,100744.78
2018-08-25T19:17:02.403Z,100739.62
2018-08-25T19:19:30.743Z,100744.78
2018-08-25T19:21:59.348Z,100744.64
2018-08-25T19:24:30.116Z,100741.95
2018-08-25T19:27:00.918Z,100743.88
2018-08-25T19:29:27.977Z,100741.67
2018-08-25T19:31:56.371Z,100742.55
2018-08-25T19:34:24.695Z,100744.94
2018-08-25T19:36:53.002Z,100744.91
2018-08-25T19:39:21.349Z,100750.86
2018-08-25T19:41:49.946Z,100751.03
2018-08-25T19:44:18.330Z,100757.78
2018-08-25T19:46:46.728Z,100757.26
2018-08-25T19:49:15.147Z,100762.34
2018-08-25T19:51:43.660Z,100772.49
2018-08-25T19:54:11.946Z,100779.78
2018-08-25T19:56:40.338Z,100777.69
2018-08-25T19:59:08.722Z,100789.37
2018-08-25T20:01:37.094Z,100784.75
2018-08-25T20:04:05.435Z,100781.62
2018-08-25T20:06:34.006Z,100782.81
2018-08-25T20:09:02.385Z,100782.47
2018-08-25T20:11:30.786Z,100780.53
2018-08-25T20:13:58.642Z,100776.01
2018-08-25T20:16:27.432Z,100780.64
2018-08-25T20:18:55.765Z,100783.45
2018-08-25T20:21:24.097Z,100788.25
2018-08-25T20:23:52.540Z,100794.12
2018-08-25T20:26:20.931Z,100788.91
2018-08-25T20:28:49.281Z,100793.45
2018-08-25T20:31:19.165Z,100797.10
2018-08-25T20:33:46.832Z,100797.25
2018-08-25T20:36:15.803Z,100793.58
2018-08-25T20:38:44.146Z,100790.27
2018-08-25T20:41:12.561Z,100789.14
2018-08-25T20:43:40.903Z,100791.16
2018-08-25T20:46:09.256Z,100794.56
2018-08-25T20:48:37.614Z,100802.38
2018-08-25T20:51:05.952Z,100805.76
2018-08-25T20:53:34.324Z,100807.93
2018-08-25T20:56:02.041Z,100804.80
2018-08-25T20:58:32.831Z,100803.61
2018-08-25T21:01:00.577Z,100800.82
2018-08-25T21:03:32.767Z,100808.39
2018-08-25T21:06:00.136Z,100803.56
2018-08-25T21:08:28.689Z,100807.34
2018-08-25T21:10:57.189Z,100812.38
2018-08-25T21:13:25.529Z,100812.20
2018-08-25T21:15:53.976Z,100816.55
2018-08-25T21:18:22.225Z,100818.58
2018-08-25T21:20:50.009Z,100824.13
2018-08-25T21:23:18.323Z,100822.16
2018-08-25T21:25:47.238Z,100821.99
2018-08-25T21:28:15.609Z,100820.59
2018-08-25T21:30:43.961Z,100821.05
2018-08-25T21:33:13.265Z,100822.44
2018-08-25T21:35:40.609Z,100823.75
2018-08-25T21:38:09.008Z,100821.45
2018-08-25T21:40:36.767Z,100822.13
2018-08-25T21:43:05.731Z,100821.23
2018-08-25T21:45:34.059Z,100810.63
2018-08-25T21:48:02.379Z,100810.13
2018-08-25T21:50:30.125Z,100804.24
2018-08-25T21:52:59.044Z,100805.64
2018-08-25T21:55:27.403Z,100804.61
2018-08-25T21:57:55.163Z,100799.95
2018-08-25T22:00:23.485Z,100795.84
2018-08-25T22:02:52.709Z,100801.09
2018-08-25T22:05:21.040Z,100798.76
2018-08-25T22:07:49.368Z,100806.84
2018-08-25T22:10:17.691Z,100816.27
2018-08-25T22:12:46.053Z,100817.28
2018-08-25T22:15:14.381Z,100812.63
2018-08-25T22:17:42.785Z,100803.05
2018-08-25T22:20:11.117Z,100802.36
2018-08-25T22:22:39.562Z,100808.73
2018-08-25T22:25:07.247Z,100813.03
2018-08-25T22:27:36.192Z,100811.19
2018-08-25T22:30:04.540Z,100807.54
2018-08-25T22:32:32.857Z,100803.16
2018-08-25T22:35:01.237Z,100801.77
2018-08-25T22:37:29.638Z,100798.89
2018-08-25T22:39:57.509Z,100804.08
2018-08-25T22:42:26.541Z,100807.63
2018-08-25T22:44:54.682Z,100814.99
2018-08-25T22:47:22.544Z,100811.19
2018-08-25T22:49:52.849Z,100809.80
2018-08-25T22:52:19.974Z,100798.64
2018-08-25T22:54:48.342Z,100792.63
2018-08-25T22:57:16.654Z,100795.75
2018-08-25T22:59:45.141Z,100793.41
2018-08-25T23:02:13.442Z,100792.57
2018-08-25T23:04:41.804Z,100795.69
2018-08-25T23:07:10.216Z,100798.36
2018-08-25T23:09:38.580Z,100803.26
2018-08-25T23:12:06.940Z,100801.77
2018-08-25T23:14:35.546Z,100796.18
2018-08-25T23:17:03.674Z,100803.09
2018-08-25T23:19:32.271Z,100804.48
2018-08-25T23:21:59.786Z,100805.44
2018-08-25T23:24:28.687Z,100808.71
2018-08-25T23:26:57.026Z,100805.83
2018-08-25T23:29:25.079Z,100807.78
2018-08-25T23:31:53.988Z,100815.02
2018-08-25T23:34:22.319Z,100814.66
2018-08-25T23:36:50.640Z,100822.51
2018-08-25T23:39:18.387Z,100825.77
2018-08-25T23:41:46.715Z,100827.13
2018-08-25T23:44:15.626Z,100833.08
2018-08-25T23:46:43.941Z,100832.59
2018-08-25T23:49:12.277Z,100828.60
2018-08-25T23:51:40.616Z,100828.34
2018-08-25T23:54:08.919Z,100824.71
2018-08-25T23:56:37.237Z,100834.91
2018-08-25T23:59:06.092Z,100834.52
